Time;durP1;ratioP1;P1;durP2;ratioP2;P2;SDS_P1;SDS_P2;PMS_P1;PMS_P2;Temp;Humidity;BMP_temperature;BMP_pressure;BME280_temperature;BME280_humidity;BME280_pressure;Samples;Min_cycle;Max_cycle;Signal;HPM_P1;HPM_P2
2022/12/01 00:01:49;;;;;;;;;1.60;1.60;;;;;8.31;56.15;99748.13;5049445;28;8909;-76
2022/12/01 00:04:18;;;;;;;;;1.80;1.80;;;;;8.18;56.33;99742.78;5047189;28;8878;-77
2022/12/01 00:06:49;;;;;;;;;2.60;2.60;;;;;8.04;56.70;99749.53;5032131;28;8966;-77
2022/12/01 00:12:16;;;;;;;;;1.00;1.00;;;;;8.07;57.43;99753.88;5020194;28;8876;-78
2022/12/01 00:14:53;;;;;;;;;2.80;2.60;;;;;8.10;57.26;99759.13;5025618;28;8874;-78
2022/12/01 00:17:23;;;;;;;;;2.00;2.00;;;;;8.07;57.01;99749.56;5000332;28;8892;-78
2022/12/01 00:19:52;;;;;;;;;1.00;1.00;;;;;8.09;56.92;99753.06;5046597;28;8850;-76
2022/12/01 00:22:21;;;;;;;;;2.00;2.00;;;;;8.17;56.48;99759.22;5032451;28;9592;-77
2022/12/01 00:24:50;;;;;;;;;2.00;2.00;;;;;8.15;57.47;99750.53;5015875;28;9815;-77
2022/12/01 00:27:18;;;;;;;;;5.00;3.00;;;;;7.98;57.25;99746.84;5046845;28;8846;-77
2022/12/01 00:29:47;;;;;;;;;2.60;2.60;;;;;7.96;57.77;99757.22;5046946;28;8853;-75
2022/12/01 00:32:16;;;;;;;;;1.00;1.00;;;;;7.92;57.38;99751.94;5046821;28;8867;-77
2022/12/01 00:34:46;;;;;;;;;3.20;2.20;;;;;7.85;57.71;99755.34;5047587;28;8844;-76
2022/12/01 00:37:14;;;;;;;;;2.40;2.00;;;;;8.12;57.53;99760.00;5045526;28;8854;-76
2022/12/01 00:39:43;;;;;;;;;3.00;2.00;;;;;8.14;57.37;99760.91;5029415;28;8870;-76
2022/12/01 00:42:12;;;;;;;;;2.60;2.20;;;;;8.31;56.85;99754.19;5046312;28;8915;-77
2022/12/01 00:44:41;;;;;;;;;2.60;2.60;;;;;8.24;56.21;99754.97;5046865;28;8846;-77
2022/12/01 00:47:09;;;;;;;;;1.00;1.00;;;;;8.06;57.71;99749.56;5064477;28;8876;-77
2022/12/01 00:49:38;;;;;;;;;3.80;3.80;;;;;8.28;56.83;99753.25;5068337;28;8846;-76
2022/12/01 00:52:08;;;;;;;;;2.60;1.20;;;;;8.27;56.78;99752.41;5070356;28;8878;-77
2022/12/01 00:54:37;;;;;;;;;3.20;2.00;;;;;8.42;56.42;99756.94;5089654;28;8859;-75
2022/12/01 00:57:05;;;;;;;;;2.20;2.20;;;;;8.35;56.19;99747.28;5088119;28;8867;-76
2022/12/01 00:59:35;;;;;;;;;3.80;2.40;;;;;8.50;55.30;99751.84;5089326;28;8835;-76
2022/12/01 01:02:04;;;;;;;;;3.40;2.60;;;;;8.23;56.36;99762.75;5067259;28;9686;-77
2022/12/01 01:04:35;;;;;;;;;1.00;1.00;;;;;8.17;56.95;99748.81;5075046;28;9036;-76
2022/12/01 01:07:04;;;;;;;;;2.00;2.00;;;;;8.17;56.48;99748.81;5086176;28;8858;-77
2022/12/01 01:09:35;;;;;;;;;4.20;2.00;;;;;8.36;56.02;99754.25;5054707;28;8951;-78
2022/12/01 01:12:03;;;;;;;;;1.00;1.00;;;;;8.28;56.49;99755.88;5103113;28;8867;-76
2022/12/01 01:14:32;;;;;;;;;2.00;2.00;;;;;7.83;57.66;99764.81;5053649;28;8851;-78
2022/12/01 01:17:02;;;;;;;;;2.60;2.60;;;;;7.99;56.85;99759.84;5076403;28;8894;-77
2022/12/01 01:19:31;;;;;;;;;1.60;1.60;;;;;7.61;57.53;99754.97;5100366;28;8872;-76
2022/12/01 01:21:59;;;;;;;;;3.40;2.20;;;;;8.19;56.60;99767.91;5068762;28;8882;-76
2022/12/01 01:24:28;;;;;;;;;4.20;2.60;;;;;8.13;56.61;99759.16;5067452;28;10011;-76
2022/12/01 01:26:58;;;;;;;;;2.00;1.00;;;;;8.28;55.74;99771.44;5071711;28;8973;-76
2022/12/01 01:29:27;;;;;;;;;2.40;2.40;;;;;8.30;56.14;99754.16;5089211;28;8840;-76
2022/12/01 01:31:55;;;;;;;;;1.00;1.00;;;;;8.27;55.45;99756.72;5088630;28;8870;-77
2022/12/01 01:34:24;;;;;;;;;2.00;2.00;;;;;8.10;56.09;99754.78;5087086;28;8859;-76
2022/12/01 01:36:52;;;;;;;;;1.00;1.00;;;;;8.25;55.79;99751.50;5068342;28;8847;-77
2022/12/01 01:39:21;;;;;;;;;2.00;1.00;;;;;8.10;56.71;99759.97;5049445;28;8854;-76
2022/12/01 01:41:50;;;;;;;;;2.00;2.00;;;;;8.07;55.63;99740.88;5067732;28;8974;-76
2022/12/01 01:44:49;;;;;;;;;2.00;2.00;;;;;8.16;55.59;99751.41;5082044;28;9672;-76
2022/12/01 01:47:23;;;;;;;;;1.20;1.20;;;;;7.84;56.30;99751.84;5088191;28;8864;-76
2022/12/01 01:49:53;;;;;;;;;0.40;0.40;;;;;8.07;56.71;99736.59;5081186;28;8842;-76
2022/12/01 01:52:23;;;;;;;;;1.00;1.00;;;;;8.12;55.74;99752.22;5067940;28;8931;-76
2022/12/01 01:54:55;;;;;;;;;0.80;0.80;;;;;7.75;57.23;99744.81;5068273;28;8912;-76
2022/12/01 01:57:28;;;;;;;;;2.00;1.00;;;;;7.93;56.65;99749.38;5069310;28;8908;-76
2022/12/01 02:00:06;;;;;;;;;2.00;0.00;;;;;7.87;56.80;99751.91;5083060;28;8867;-77
2022/12/01 02:02:43;;;;;;;;;1.00;1.00;;;;;7.83;56.40;99746.66;5100834;28;8860;-77
2022/12/01 02:05:14;;;;;;;;;0.40;0.40;;;;;7.88;56.89;99747.56;5087609;28;8851;-76
2022/12/01 02:07:44;;;;;;;;;0.80;0.80;;;;;7.85;56.71;99753.59;5087385;28;8863;-75
2022/12/01 02:10:21;;;;;;;;;0.60;0.60;;;;;7.88;56.31;99748.47;5080869;28;8830;-76
2022/12/01 02:13:02;;;;;;;;;0.00;0.00;;;;;7.90;56.06;99749.34;5067314;28;8878;-76
2022/12/01 02:15:41;;;;;;;;;1.00;0.40;;;;;8.00;56.27;99746.00;5067441;28;8881;-76
2022/12/01 02:18:23;;;;;;;;;0.80;0.80;;;;;7.89;56.52;99750.19;5083010;28;8838;-76
2022/12/01 02:21:27;;;;;;;;;0.20;0.20;;;;;7.95;56.39;99747.66;5066720;28;8949;-77
2022/12/01 02:24:34;;;;;;;;;1.00;0.00;;;;;7.90;55.92;99748.47;5068194;28;9037;-77
2022/12/01 02:27:11;;;;;;;;;1.00;1.00;;;;;8.00;55.75;99734.75;5068228;28;9707;-75
2022/12/01 02:30:02;;;;;;;;;1.00;1.00;;;;;8.13;55.21;99741.84;5068481;28;8879;-75
2022/12/01 02:32:43;;;;;;;;;0.00;0.00;;;;;7.69;56.67;99738.66;5068058;28;8843;-75
2022/12/01 02:35:18;;;;;;;;;1.00;1.00;;;;;7.98;56.22;99744.25;5059588;28;8877;-76
2022/12/01 02:37:56;;;;;;;;;0.00;0.00;;;;;8.18;55.83;99740.19;5017294;28;8858;-77
2022/12/01 02:40:29;;;;;;;;;1.00;1.00;;;;;8.27;55.00;99741.16;5032183;28;9618;-77
2022/12/01 02:43:03;;;;;;;;;1.00;1.00;;;;;8.13;55.32;99722.81;5055743;28;8899;-76
2022/12/01 02:45:40;;;;;;;;;1.00;1.00;;;;;7.88;56.09;99724.19;5052232;28;8898;-77
2022/12/01 02:48:18;;;;;;;;;0.80;0.80;;;;;7.92;55.95;99741.56;5063850;28;8853;-77
2022/12/01 02:50:47;;;;;;;;;0.00;0.00;;;;;7.90;55.69;99731.19;5068194;28;8914;-77
2022/12/01 02:53:18;;;;;;;;;0.00;0.00;;;;;8.07;55.19;99739.19;5074951;28;8863;-76
2022/12/01 02:55:49;;;;;;;;;1.00;1.00;;;;;8.13;55.32;99738.38;5052720;28;8844;-77
2022/12/01 02:58:18;;;;;;;;;3.00;3.00;;;;;8.12;55.02;99747.03;5069229;28;8856;-77
2022/12/01 03:00:59;;;;;;;;;0.20;0.20;;;;;8.02;55.45;99720.06;5069464;28;8860;-76
2022/12/01 03:03:50;;;;;;;;;0.00;0.00;;;;;7.92;55.50;99739.84;5075047;28;8859;-77
2022/12/01 03:06:29;;;;;;;;;1.00;1.00;;;;;8.02;55.20;99725.25;5089630;28;8860;-75
2022/12/01 03:09:08;;;;;;;;;0.20;0.20;;;;;8.02;56.02;99737.38;5091721;28;8847;-76
2022/12/01 03:11:48;;;;;;;;;1.00;1.00;;;;;7.77;56.00;99740.50;5039961;28;8860;-77
2022/12/01 03:14:26;;;;;;;;;1.00;1.00;;;;;7.96;55.30;99741.63;5091938;28;9581;-77
2022/12/01 03:16:57;;;;;;;;;0.00;0.00;;;;;7.92;55.92;99754.53;5092020;28;8836;-77
2022/12/01 03:19:35;;;;;;;;;1.00;1.00;;;;;8.19;54.54;99748.84;5091322;28;8874;-76
2022/12/01 03:22:08;;;;;;;;;0.60;0.60;;;;;8.00;55.49;99752.94;5070644;28;9561;-77
2022/12/01 03:24:40;;;;;;;;;1.00;0.00;;;;;7.75;56.01;99743.91;5068446;28;8859;-75
2022/12/01 03:27:12;;;;;;;;;2.00;2.00;;;;;8.16;55.16;99754.84;5069717;28;8850;-76
2022/12/01 03:29:45;;;;;;;;;1.00;1.00;;;;;7.99;54.92;99746.00;5078895;28;8861;-77
2022/12/01 03:32:20;;;;;;;;;0.40;0.40;;;;;8.12;55.22;99747.88;5085997;28;8862;-76
2022/12/01 03:34:54;;;;;;;;;0.00;0.00;;;;;8.08;55.34;99743.50;5070216;28;9046;-75
2022/12/01 03:37:30;;;;;;;;;1.00;1.00;;;;;8.05;55.10;99745.19;5075559;28;8882;-76
2022/12/01 03:40:02;;;;;;;;;2.00;1.00;;;;;8.15;55.53;99745.34;5089462;28;8851;-78
2022/12/01 03:42:36;;;;;;;;;1.00;0.80;;;;;7.96;55.09;99736.44;5090693;28;8851;-75
2022/12/01 03:45:09;;;;;;;;;1.40;0.40;;;;;8.26;55.16;99742.88;5079763;28;9576;-76
2022/12/01 03:47:39;;;;;;;;;0.60;0.60;;;;;8.29;54.44;99739.44;5077111;28;8888;-76
2022/12/01 03:50:12;;;;;;;;;1.40;1.40;;;;;8.22;54.94;99742.81;5070966;28;8842;-76
2022/12/01 03:52:49;;;;;;;;;1.00;1.00;;;;;8.28;55.22;99738.56;5068759;28;8854;-77
2022/12/01 03:55:22;;;;;;;;;1.20;1.00;;;;;8.39;54.53;99736.06;5087485;28;8852;-76
2022/12/01 03:57:56;;;;;;;;;2.60;2.20;;;;;8.55;54.38;99737.16;5038780;28;8930;-78
2022/12/01 04:00:25;;;;;;;;;1.40;1.40;;;;;8.26;54.87;99735.09;5081487;28;8931;-77
2022/12/01 04:02:56;;;;;;;;;1.20;1.20;;;;;8.51;54.51;99740.59;5018258;28;8875;-75
2022/12/01 04:05:26;;;;;;;;;1.00;1.00;;;;;8.39;54.79;99738.69;5070247;28;8830;-76
2022/12/01 04:07:55;;;;;;;;;2.00;1.00;;;;;8.40;54.67;99737.84;5068373;28;9005;-76
2022/12/01 04:10:24;;;;;;;;;2.20;2.20;;;;;8.29;54.90;99736.84;5081084;28;8819;-76
2022/12/01 04:12:57;;;;;;;;;5.80;5.80;;;;;8.32;54.46;99736.88;5089648;28;8855;-77
2022/12/01 04:15:27;;;;;;;;;0.80;0.00;;;;;8.32;54.67;99726.50;5087763;28;8860;-77
2022/12/01 04:17:56;;;;;;;;;2.00;1.00;;;;;8.41;54.15;99729.16;5088266;28;10206;-77
2022/12/01 04:20:26;;;;;;;;;2.40;1.00;;;;;8.25;54.68;99722.94;5089802;28;8881;-77
2022/12/01 04:22:54;;;;;;;;;1.20;1.00;;;;;8.22;54.50;99717.69;5065673;28;8846;-76
2022/12/01 04:25:23;;;;;;;;;0.20;0.20;;;;;7.93;56.13;99722.53;5073436;28;8843;-76
2022/12/01 04:27:51;;;;;;;;;1.00;1.00;;;;;8.38;54.82;99726.56;5088758;28;8851;-76
2022/12/01 04:30:20;;;;;;;;;1.00;1.00;;;;;8.10;55.31;99705.44;5089943;28;8872;-77
2022/12/01 04:32:48;;;;;;;;;1.00;1.00;;;;;8.15;54.90;99721.09;5089648;28;9609;-76
2022/12/01 04:35:17;;;;;;;;;3.80;3.40;;;;;8.07;55.33;99728.81;5089873;28;8868;-77
2022/12/01 04:37:47;;;;;;;;;6.20;5.40;;;;;8.00;55.17;99721.78;5090680;28;8847;-77
2022/12/01 04:40:17;;;;;;;;;2.20;1.00;;;;;8.16;54.97;99734.06;5077258;28;8882;-76
2022/12/01 04:42:46;;;;;;;;;1.00;1.00;;;;;8.11;55.53;99725.38;5081281;28;8874;-76
2022/12/01 04:45:15;;;;;;;;;0.60;0.60;;;;;8.04;55.77;99735.69;5026362;28;8860;-76
2022/12/01 04:47:43;;;;;;;;;2.60;1.00;;;;;8.38;54.00;99734.34;5026849;28;8891;-77
2022/12/01 04:50:12;;;;;;;;;1.00;1.00;;;;;8.52;53.55;99742.31;5009796;28;8832;-76
2022/12/01 04:52:40;;;;;;;;;2.00;2.00;;;;;8.58;53.40;99739.78;5026225;28;8863;-77
2022/12/01 04:55:14;;;;;;;;;1.00;1.00;;;;;8.27;54.25;99739.41;4992488;28;8875;-77
2022/12/01 04:57:42;;;;;;;;;1.00;1.00;;;;;8.50;53.59;99744.91;5026181;28;9942;-76
2022/12/01 05:00:12;;;;;;;;;2.00;1.20;;;;;8.22;54.15;99740.22;5026174;28;8856;-77
2022/12/01 05:02:42;;;;;;;;;0.40;0.40;;;;;8.22;54.23;99742.81;5010533;28;8864;-76
2022/12/01 05:05:12;;;;;;;;;8.20;6.20;;;;;8.26;54.26;99741.97;5026279;28;8860;-76
2022/12/01 05:07:41;;;;;;;;;1.00;1.00;;;;;8.31;53.89;99743.78;5026896;28;8852;-76
2022/12/01 05:10:13;;;;;;;;;1.60;1.40;;;;;8.25;54.22;99746.31;4996497;28;8841;-76
2022/12/01 05:12:41;;;;;;;;;0.80;0.80;;;;;8.27;53.89;99739.41;5035558;28;8939;-75
2022/12/01 05:15:10;;;;;;;;;2.00;1.00;;;;;8.40;53.60;99741.28;5027070;28;9570;-75
2022/12/01 05:17:39;;;;;;;;;1.00;1.00;;;;;8.23;54.47;99750.63;5068397;28;8923;-77
2022/12/01 05:22:58;;;;;;;;;60.75;43.50;;;;;8.44;53.02;99743.97;5087479;28;8990;-76
2022/12/01 05:25:38;;;;;;;;;9.20;9.20;;;;;8.55;53.72;99752.75;5088776;28;8870;-76
2022/12/01 05:28:06;;;;;;;;;3.40;3.00;;;;;8.47;53.81;99747.47;5089510;28;8883;-76
2022/12/01 05:30:35;;;;;;;;;1.60;1.60;;;;;8.47;53.37;99757.88;5065927;28;8982;-77
2022/12/01 05:33:03;;;;;;;;;1.60;1.40;;;;;8.36;53.68;99744.72;5075426;28;8848;-77
2022/12/01 05:35:33;;;;;;;;;1.40;1.20;;;;;8.31;54.03;99742.91;5075522;28;8840;-76
2022/12/01 05:38:01;;;;;;;;;2.00;1.80;;;;;8.16;54.61;99741.00;5067178;28;8855;-77
2022/12/01 05:40:37;;;;;;;;;3.00;2.00;;;;;7.76;55.67;99746.53;5066280;28;8848;-77
2022/12/01 05:43:06;;;;;;;;;1.00;1.00;;;;;7.88;55.21;99744.97;5049216;28;8898;-77
2022/12/01 05:45:35;;;;;;;;;3.00;2.40;;;;;8.08;55.16;99743.50;5050585;28;8851;-76
2022/12/01 05:48:04;;;;;;;;;3.00;2.00;;;;;7.95;55.09;99742.47;5066387;28;9610;-77
2022/12/01 05:50:33;;;;;;;;;1.80;1.60;;;;;7.95;54.92;99750.25;5064886;28;8893;-78
2022/12/01 05:53:01;;;;;;;;;1.60;1.60;;;;;8.10;54.92;99752.19;5047448;28;8860;-77
2022/12/01 05:55:30;;;;;;;;;1.60;1.60;;;;;8.32;53.78;99762.88;5065241;28;8855;-76
2022/12/01 05:58:00;;;;;;;;;1.40;1.40;;;;;8.35;53.77;99763.75;5065417;28;8882;-78
2022/12/01 06:00:29;;;;;;;;;6.80;2.20;;;;;8.32;54.45;99757.66;5064852;28;8864;-75
2022/12/01 06:02:57;;;;;;;;;2.40;2.40;;;;;8.57;53.17;99761.44;5047720;28;8856;-77
2022/12/01 06:05:26;;;;;;;;;2.00;2.00;;;;;8.66;53.35;99761.56;5047522;28;8867;-75
2022/12/01 06:07:55;;;;;;;;;2.00;2.00;;;;;8.54;53.33;99757.09;5072831;28;9695;-76
2022/12/01 06:10:23;;;;;;;;;1.00;1.00;;;;;8.25;53.40;99759.31;5068844;28;8832;-78
2022/12/01 06:12:52;;;;;;;;;2.00;2.00;;;;;8.24;53.73;99757.59;5068681;28;8859;-77
2022/12/01 06:15:22;;;;;;;;;2.20;2.20;;;;;7.98;54.48;99755.50;5067380;28;8868;-71
2022/12/01 06:17:50;;;;;;;;;3.00;3.00;;;;;8.15;55.40;99762.66;5067517;28;8946;-76
2022/12/01 06:20:19;;;;;;;;;7.00;5.80;;;;;8.18;55.27;99755.78;5032254;28;8946;-77
2022/12/01 06:22:48;;;;;;;;;9.40;9.20;;;;;8.42;53.91;99762.13;5067228;28;8842;-76
2022/12/01 06:25:17;;;;;;;;;6.40;5.40;;;;;8.34;53.55;99750.75;5091014;28;8969;-75
2022/12/01 06:27:45;;;;;;;;;29.60;25.00;;;;;8.27;54.51;99765.38;5117309;28;8870;-78
2022/12/01 06:30:14;;;;;;;;;38.50;36.00;;;;;8.24;53.82;99754.97;5086851;28;8874;-79
2022/12/01 06:32:44;;;;;;;;;17.20;16.00;;;;;8.14;54.90;99759.16;5060806;28;8874;-80
2022/12/01 06:35:14;;;;;;;;;23.40;18.40;;;;;8.43;53.29;99763.00;5087613;28;8942;-81
2022/12/01 06:37:42;;;;;;;;;18.00;16.80;;;;;8.67;52.92;99775.41;5103394;28;8917;-79
2022/12/01 06:40:12;;;;;;;;;12.60;9.80;;;;;8.49;53.38;99763.97;5062573;28;8855;-83
2022/12/01 06:42:41;;;;;;;;;6.40;5.40;;;;;8.18;54.34;99767.88;5046942;28;8890;-83
2022/12/01 06:45:11;;;;;;;;;6.00;6.00;;;;;8.27;53.91;99772.31;5012761;28;8988;-82
2022/12/01 06:47:40;;;;;;;;;6.20;5.00;;;;;8.26;53.78;99770.56;5029373;28;8854;-83
2022/12/01 06:50:11;;;;;;;;;4.60;4.60;;;;;8.41;53.35;99768.16;5045971;28;8856;-81
2022/12/01 06:52:40;;;;;;;;;3.80;3.80;;;;;8.46;52.89;99769.13;5013187;28;8872;-80
2022/12/01 06:55:09;;;;;;;;;6.80;6.80;;;;;8.38;53.60;99762.94;5029844;28;8936;-81
2022/12/01 06:57:38;;;;;;;;;9.20;6.00;;;;;8.47;53.11;99770.88;5014292;28;8884;-82
2022/12/01 07:00:10;;;;;;;;;9.00;7.60;;;;;8.39;53.23;99772.44;5036033;28;8888;-82
2022/12/01 07:02:39;;;;;;;;;3.80;3.00;;;;;7.96;54.29;99771.94;4980777;28;8840;-79
2022/12/01 07:05:10;;;;;;;;;7.00;6.00;;;;;8.16;53.84;99772.19;5028737;28;8990;-78
2022/12/01 07:07:39;;;;;;;;;1.60;1.60;;;;;8.15;54.41;99766.13;5029211;28;8879;-80
2022/12/01 07:10:10;;;;;;;;;6.40;4.60;;;;;8.26;53.64;99775.75;5048330;28;10045;-81
2022/12/01 07:12:39;;;;;;;;;6.80;6.20;;;;;8.66;52.97;99773.66;5061429;28;8974;-80
2022/12/01 07:15:09;;;;;;;;;6.40;6.00;;;;;8.67;52.18;99778.00;5051510;28;8984;-79
2022/12/01 07:17:38;;;;;;;;;3.00;3.00;;;;;8.97;51.46;99780.06;5017306;28;8847;-81
2022/12/01 07:20:09;;;;;;;;;4.60;4.60;;;;;8.61;52.39;99773.63;5071295;28;8931;-80
2022/12/01 07:22:41;;;;;;;;;5.00;5.00;;;;;8.69;51.80;99791.91;5093792;28;8866;-83
2022/12/01 07:25:11;;;;;;;;;6.00;5.60;;;;;8.54;52.67;99787.38;5090209;28;8908;-81
2022/12/01 07:27:40;;;;;;;;;7.80;7.80;;;;;8.85;51.83;99782.56;5069353;28;8843;-81
2022/12/01 07:30:09;;;;;;;;;5.40;5.00;;;;;8.72;52.69;99786.75;5085718;28;8834;-79
2022/12/01 07:32:39;;;;;;;;;7.40;7.40;;;;;8.59;52.49;99798.72;5125660;28;8842;-78
2022/12/01 07:35:09;;;;;;;;;6.00;6.00;;;;;8.78;51.95;99790.25;5096298;28;8956;-78
2022/12/01 07:37:38;;;;;;;;;5.20;5.00;;;;;8.83;51.83;99800.72;5060305;28;8924;-82
2022/12/01 07:40:09;;;;;;;;;8.80;7.00;;;;;8.43;52.71;99795.09;5073510;28;9077;-83
2022/12/01 07:42:40;;;;;;;;;6.20;6.20;;;;;8.83;52.10;99784.22;5072527;28;8866;-81
2022/12/01 07:45:09;;;;;;;;;9.20;8.40;;;;;8.76;52.42;99794.56;5071403;28;8858;-81
2022/12/01 07:47:38;;;;;;;;;5.60;5.00;;;;;9.06;51.58;99789.69;5089447;28;9004;-82
2022/12/01 07:50:09;;;;;;;;;6.20;6.20;;;;;8.79;51.66;99793.75;5074706;28;8842;-90
2022/12/01 07:52:41;;;;;;;;;13.00;11.00;;;;;8.77;52.21;99808.44;5022749;28;8853;-84
2022/12/01 07:55:09;;;;;;;;;9.00;9.00;;;;;8.85;51.99;99805.94;5072734;28;8945;-81
2022/12/01 07:57:39;;;;;;;;;9.00;8.20;;;;;8.97;52.20;99803.47;5073177;28;8866;-81
2022/12/01 08:00:08;;;;;;;;;7.80;7.00;;;;;8.92;51.82;99797.34;5024535;28;8869;-78
2022/12/01 08:02:39;;;;;;;;;6.40;5.60;;;;;8.99;51.93;99801.75;5099368;28;8879;-78
2022/12/01 08:05:09;;;;;;;;;6.60;6.60;;;;;8.96;51.96;99792.19;5077359;28;8867;-78
2022/12/01 08:07:37;;;;;;;;;7.60;7.60;;;;;9.01;51.74;99787.03;5054333;28;8866;-81
2022/12/01 08:10:08;;;;;;;;;12.20;12.20;;;;;9.43;50.40;99798.66;5103603;28;8880;-80
2022/12/01 08:12:37;;;;;;;;;7.20;6.40;;;;;9.13;51.02;99797.56;5049089;28;8945;-80
2022/12/01 08:15:07;;;;;;;;;7.40;6.40;;;;;9.16;50.87;99783.69;5049169;28;9620;-81
2022/12/01 08:17:36;;;;;;;;;7.00;5.60;;;;;8.86;52.31;99808.53;5012525;28;8892;-80
2022/12/01 08:20:07;;;;;;;;;5.80;5.80;;;;;8.95;51.71;99802.56;5014028;28;8955;-79
2022/12/01 08:22:35;;;;;;;;;5.40;5.40;;;;;9.02;51.62;99787.88;5030710;28;8850;-80
2022/12/01 08:25:05;;;;;;;;;10.00;8.80;;;;;9.20;51.14;99800.22;5043826;28;8857;-81
2022/12/01 08:27:35;;;;;;;;;14.20;8.40;;;;;9.32;50.62;99805.53;5044070;28;8873;-77
2022/12/01 08:30:05;;;;;;;;;2.60;2.60;;;;;9.20;50.58;99798.47;5057154;28;8867;-78
2022/12/01 08:32:34;;;;;;;;;7.00;5.80;;;;;8.99;50.56;99799.16;5070972;28;8837;-81
2022/12/01 08:35:04;;;;;;;;;8.00;5.80;;;;;9.16;50.89;99802.78;5068790;28;8857;-80
2022/12/01 08:37:32;;;;;;;;;9.00;7.60;;;;;9.03;51.41;99803.50;5068382;28;8959;-78
2022/12/01 08:40:01;;;;;;;;;9.60;8.60;;;;;9.21;50.91;99800.22;5027756;28;8846;-77
2022/12/01 08:42:29;;;;;;;;;10.60;10.00;;;;;9.44;50.47;99805.63;4963221;28;8874;-78
2022/12/01 08:45:00;;;;;;;;;9.00;8.80;;;;;9.69;49.68;99798.88;4984861;28;8855;-77
2022/12/01 08:47:28;;;;;;;;;8.20;7.40;;;;;9.33;50.48;99808.13;4943701;28;8965;-76
2022/12/01 08:49:57;;;;;;;;;10.00;6.60;;;;;9.18;50.55;99818.41;5026205;28;8844;-77
2022/12/01 08:52:26;;;;;;;;;9.80;8.00;;;;;9.42;50.44;99811.69;5034457;28;8903;-77
2022/12/01 08:54:54;;;;;;;;;7.60;7.60;;;;;9.49;50.72;99821.28;5050131;28;8895;-76
2022/12/01 08:57:23;;;;;;;;;4.20;4.20;;;;;9.43;50.96;99818.63;5049969;28;8840;-79
2022/12/01 08:59:52;;;;;;;;;5.20;5.20;;;;;9.61;50.66;99816.19;5066535;28;8956;-79
2022/12/01 09:02:22;;;;;;;;;6.20;3.80;;;;;9.51;50.94;99822.19;5050634;28;8874;-77
2022/12/01 09:04:51;;;;;;;;;4.20;4.20;;;;;9.28;51.34;99817.66;5047236;28;8846;-78
2022/12/01 09:07:20;;;;;;;;;7.60;7.60;;;;;9.53;50.79;99820.47;5013323;28;8842;-82
2022/12/01 09:09:54;;;;;;;;;9.80;6.40;;;;;9.52;50.68;99818.69;5030153;28;9744;-77
2022/12/01 09:12:22;;;;;;;;;6.80;6.80;;;;;9.62;49.96;99814.44;5030839;28;8866;-78
2022/12/01 09:14:51;;;;;;;;;8.20;7.60;;;;;9.70;50.16;99813.66;5031355;28;8866;-78
2022/12/01 09:17:22;;;;;;;;;8.60;6.20;;;;;9.65;49.82;99812.72;5068583;28;8859;-76
2022/12/01 09:19:51;;;;;;;;;10.00;10.00;;;;;9.87;49.33;99813.75;5064010;28;8862;-78
2022/12/01 09:22:20;;;;;;;;;10.80;10.00;;;;;9.73;49.90;99821.50;5036743;28;8870;-77
2022/12/01 09:24:48;;;;;;;;;7.80;6.60;;;;;9.92;49.66;99808.56;5069858;28;8872;-78
2022/12/01 09:27:17;;;;;;;;;10.40;8.80;;;;;9.95;49.62;99819.03;5070853;28;8858;-78
2022/12/01 09:29:45;;;;;;;;;7.20;6.60;;;;;9.76;50.71;99808.47;5070454;28;8854;-79
2022/12/01 09:32:14;;;;;;;;;9.60;8.00;;;;;9.66;52.61;99816.19;5069997;28;8865;-78
2022/12/01 09:34:45;;;;;;;;;10.40;10.40;;;;;9.85;52.21;99806.78;5068339;28;8846;-78
2022/12/01 09:37:13;;;;;;;;;6.40;6.40;;;;;9.87;52.14;99805.09;5068846;28;8927;-79
2022/12/01 09:39:42;;;;;;;;;7.00;7.00;;;;;9.85;52.49;99806.78;5068253;28;8865;-75
2022/12/01 09:42:15;;;;;;;;;8.40;5.60;;;;;9.69;53.36;99804.06;5074495;28;8999;-75
2022/12/01 09:44:49;;;;;;;;;7.20;6.00;;;;;9.82;53.62;99812.00;5068219;28;8866;-76
2022/12/01 09:47:22;;;;;;;;;6.00;6.00;;;;;9.42;54.23;99799.53;5033176;28;8850;-77
2022/12/01 09:49:59;;;;;;;;;5.60;5.60;;;;;9.49;54.17;99808.25;5068534;28;8854;-76
2022/12/01 09:52:40;;;;;;;;;7.80;6.00;;;;;9.32;54.80;99803.81;5067046;28;8858;-77
2022/12/01 09:55:12;;;;;;;;;14.00;10.00;;;;;9.50;54.79;99797.84;5067540;28;8838;-75
2022/12/01 09:57:43;;;;;;;;;12.00;10.40;;;;;9.69;54.44;99804.06;5068681;28;9588;-75
2022/12/01 10:00:15;;;;;;;;;8.60;8.20;;;;;9.51;53.97;99806.56;5049531;28;8854;-76
2022/12/01 10:02:51;;;;;;;;;10.00;6.80;;;;;9.77;53.85;99793.72;5066964;28;8847;-77
2022/12/01 10:05:26;;;;;;;;;13.20;11.60;;;;;9.85;53.64;99799.84;5069160;28;8881;-75
2022/12/01 10:07:59;;;;;;;;;10.40;9.80;;;;;9.67;53.70;99789.31;5067889;28;8874;-76
2022/12/01 10:10:31;;;;;;;;;8.60;7.20;;;;;9.87;53.18;99787.72;5025282;28;8948;-76
2022/12/01 10:13:00;;;;;;;;;10.00;10.00;;;;;9.96;53.17;99794.69;5113618;28;8858;-76
2022/12/01 10:15:39;;;;;;;;;10.40;10.40;;;;;9.85;52.88;99788.53;5071573;28;8846;-76
2022/12/01 10:18:23;;;;;;;;;10.60;7.80;;;;;9.91;53.08;99799.03;5050343;28;8844;-79
2022/12/01 10:21:09;;;;;;;;;6.00;5.20;;;;;9.85;52.21;99791.16;5083653;28;8852;-76
2022/12/01 10:23:51;;;;;;;;;6.60;6.20;;;;;9.94;52.26;99792.09;5066623;28;8903;-78
2022/12/01 10:26:27;;;;;;;;;5.60;5.60;;;;;9.96;52.64;99799.91;5074659;28;8853;-76
2022/12/01 10:29:07;;;;;;;;;10.00;8.20;;;;;9.78;52.91;99799.81;5067386;28;8863;-78
2022/12/01 10:31:46;;;;;;;;;7.20;6.00;;;;;9.68;52.98;99798.88;5051963;28;8896;-77
2022/12/01 10:34:18;;;;;;;;;5.80;5.00;;;;;9.74;52.88;99794.56;5085611;28;8885;-76
2022/12/01 10:36:48;;;;;;;;;6.00;6.00;;;;;9.44;53.76;99791.75;5085524;28;8830;-77
2022/12/01 10:39:19;;;;;;;;;8.20;8.20;;;;;9.65;53.26;99789.28;5068753;28;8869;-78
2022/12/01 10:41:49;;;;;;;;;5.40;5.40;;;;;9.63;53.95;99785.81;5028790;28;8838;-78
2022/12/01 10:44:19;;;;;;;;;9.20;7.80;;;;;9.55;53.64;99795.31;5028732;28;9678;-78
2022/12/01 10:46:52;;;;;;;;;11.20;10.20;;;;;9.45;53.70;99802.19;5026692;28;8889;-78
2022/12/01 10:49:35;;;;;;;;;7.80;7.80;;;;;9.76;53.12;99798.06;5003307;28;8894;-74
2022/12/01 10:52:06;;;;;;;;;9.80;7.80;;;;;9.62;53.68;99806.63;5044230;28;8901;-73
2022/12/01 10:54:37;;;;;;;;;9.20;9.20;;;;;9.32;54.29;99796.00;5048681;28;8882;-74
2022/12/01 10:57:13;;;;;;;;;6.00;6.00;;;;;9.41;54.64;99795.19;5032540;28;9607;-75
2022/12/01 10:59:49;;;;;;;;;8.60;8.00;;;;;9.38;54.16;99786.50;5036577;28;8870;-76
2022/12/01 11:02:22;;;;;;;;;7.00;7.00;;;;;9.28;55.06;99794.22;5066381;28;8881;-71
2022/12/01 11:04:54;;;;;;;;;11.60;11.60;;;;;9.60;54.60;99790.13;5067067;28;9045;-72
2022/12/01 11:07:29;;;;;;;;;7.80;7.80;;;;;9.45;54.62;99798.69;5051818;28;8887;-73
2022/12/01 11:10:17;;;;;;;;;9.40;8.60;;;;;9.57;54.15;99786.63;5068208;28;8878;-71
2022/12/01 11:12:53;;;;;;;;;13.80;12.00;;;;;9.51;54.88;99794.41;5068132;28;8836;-72
2022/12/01 11:15:26;;;;;;;;;12.60;12.60;;;;;9.65;54.05;99780.63;5064423;28;8878;-72
2022/12/01 11:18:01;;;;;;;;;16.60;16.40;;;;;9.95;53.33;99786.00;5049492;28;8896;-70
2022/12/01 11:20:35;;;;;;;;;19.20;16.00;;;;;9.84;53.70;99784.22;5088134;28;8901;-71
2022/12/01 11:23:25;;;;;;;;;12.60;12.00;;;;;9.82;54.89;99786.81;5087299;28;8822;-76
2022/12/01 11:26:01;;;;;;;;;17.60;16.40;;;;;10.19;53.48;99780.91;5071492;28;8849;-76
2022/12/01 11:28:31;;;;;;;;;16.00;14.60;;;;;10.03;53.33;99785.19;5073648;28;8883;-77
2022/12/01 11:31:03;;;;;;;;;17.00;16.40;;;;;9.91;53.54;99789.47;5051102;28;8889;-76
2022/12/01 11:33:39;;;;;;;;;21.80;21.60;;;;;9.84;53.32;99784.22;5084598;28;9625;-77
2022/12/01 11:36:09;;;;;;;;;22.20;20.00;;;;;10.19;52.76;99788.75;5051079;28;8875;-75
2022/12/01 11:38:45;;;;;;;;;20.00;18.60;;;;;10.20;52.54;99775.72;5049612;28;8850;-77
2022/12/01 11:41:28;;;;;;;;;9.60;8.20;;;;;10.21;52.73;99785.31;5104803;28;8938;-78
2022/12/01 11:43:59;;;;;;;;;17.40;14.60;;;;;10.21;52.31;99789.63;5088161;28;8845;-78
2022/12/01 11:46:34;;;;;;;;;16.20;15.20;;;;;10.11;52.44;99786.09;5088156;28;10089;-77
2022/12/01 11:49:03;;;;;;;;;13.60;10.80;;;;;10.18;52.14;99779.19;5054237;28;8845;-77
2022/12/01 11:51:36;;;;;;;;;20.20;15.80;;;;;10.02;52.87;99783.44;5088640;28;8861;-78
2022/12/01 11:54:17;;;;;;;;;19.20;17.20;;;;;9.99;52.98;99780.84;5074449;28;9641;-76
2022/12/01 11:56:47;;;;;;;;;8.00;7.60;;;;;9.90;52.85;99779.91;5061276;28;8850;-77
2022/12/01 11:59:36;;;;;;;;;15.40;13.60;;;;;9.91;53.15;99786.00;5085943;28;9604;-77
2022/12/01 12:02:23;;;;;;;;;15.60;15.60;;;;;10.10;52.82;99780.03;5070814;28;8929;-81
2022/12/01 12:05:09;;;;;;;;;18.40;17.00;;;;;10.08;52.99;99789.56;5069976;28;8838;-84
2022/12/01 12:07:47;;;;;;;;;1.00;0.00;;;;;10.31;52.38;99787.09;5070936;28;8850;-79
2022/12/01 12:10:32;;;;;;;;;14.40;14.40;;;;;10.14;52.81;99792.19;5093832;28;8864;-79
2022/12/01 12:13:29;;;;;;;;;17.20;16.00;;;;;9.90;53.05;99789.47;5072982;28;8836;-78
2022/12/01 12:16:06;;;;;;;;;22.20;20.60;;;;;10.34;52.18;99796.69;5011174;28;8840;-78